Vergas, MN (56587)

7:15 PM CDT on July 27, 2016 (GMT -0500)
East Scharf | | Change Station

Elev 1362 ft 46.65 °N, 95.79 °W | Updated 14 minutes ago

Clear
Clear
79.0 °F
Feels Like 80 °F
N
4.7
Wind Variable Wind from North

Today
High -- | Low -- °F
--% Chance of Precip.
Yesterday
High -- | Low -- °F
Precip. -- in
Pressure 30.01 in
Visibility 10.0 miles
Clouds Clear
Heat Index 80 °F
Dew Point 62 °F
Humidity 56%
Rainfall 0.88 in
Snow Depth Not available.
5:58 AM 9:00 PM
Last Quarter, 38% visible
METAR KDTL 272354Z AUTO 36004KT 10SM CLR 24/14 A3001 RMK AO2
Pressure 30.01 in
Visibility 10.0 miles
Clouds Clear
Heat Index 80 °F
Dew Point 62 °F
Humidity 56%
Rainfall 0.88 in
Snow Depth Not available.
5:58 AM 9:00 PM
Last Quarter, 38% visible
METAR KDTL 272354Z AUTO 36004KT 10SM CLR 24/14 A3001 RMK AO2

10-Day Weather Forecast

Almanac

Astronomy

Jul. 27, 2016 Rise Set
Actual Time
Civil Twilight
Nautical Twilight
Astronomical Twilight
Moon
Length of Visible Light
Length of Day
Tomorrow will be .
, % of the Moon is Illuminated

Today's Extremes

State Highs State Lows

Community

WunderPhotos

Upload Photos

1,927,974 photos uploaded!

WunderBlog® & News

Nearby

Air Quality

  Air Quality AQ Index Pollutant
Not available.

Snow Depth

Station Depth Elevation

Earthquake Activity

City Distance Mag. Time & Date
Minimum magnitude displayed is 2.5.

Coastal Water Temperatures

Place Temperature

Stations

Nearby Weather Stations

Station Location Temp. Windchill Dew Point Humidity Wind Precip. Elev Updated Type
                   

Watches & Warnings

There are currently no watches in effect.